Thursday, February 22, 2018, 5:09 PM GMT
Back to Local

CYMX, Montreal / Mirabel

Location: , , Canada Lat: 45.683
Local Time: 5:09 PM GMT (17:09 GMT) Lon: -74.033
Time Zone: GMT Elev: 269 ft

Show me the last for .
Show Decoded

2018-02-22 16:00 METAR CYMX 221600Z 05004KT 010V090 45SM BKN160 OVC230 M06/M13 A3077 RMK AS6CI2
                 SLP426 =
2018-02-22 15:00 METAR CYMX 221500Z 03004KT 350V080 45SM BKN180 OVC230 M07/M13 A3076 RMK AS5CI3
                 SLP423 =
2018-02-22 14:00 METAR CYMX 221400Z 07005KT 35SM SCT180 OVC230 M07/M14 A3076 RMK AS3CI5 SLP423 =
2018-02-22 13:00 METAR CYMX 221300Z 07003KT 30SM FEW140 SCT210 OVC250 M08/M14 A3075 RMK AC1CC3CI4
                 SLP420 =
2018-02-22 12:00 METAR CYMX 221200Z 07003KT 45SM SCT230 BKN250 M09/M14 A3072 RMK CC4CI3 SLP409 =
2018-02-22 11:00 METAR CYMX 221100Z 12004KT 25SM FEW200 SCT230 M08/M14 A3071 RMK CI1CI3 CI TR
                 SLP405 =
2018-02-22 10:00 METAR CYMX 221000Z 03004KT 25SM FEW230 M07/M13 A3068 RMK CI1 CI TR SLP397 =
2018-02-22 09:00 METAR CYMX 220900Z 34005KT 25SM FEW230 M06/M13 A3067 RMK CI1 SLP393 =
2018-02-22 08:00 METAR CYMX 220800Z 32005KT 25SM FEW210 BKN240 M05/M13 A3067 RMK CI2CI3 SLP391 =
2018-02-22 07:00 METAR CYMX 220700Z 32006KT 25SM FEW240 M05/M13 A3066 RMK CI1 CI TR SLP387 =
2018-02-22 06:00 METAR CYMX 220600Z 31004KT 25SM FEW240 M04/M14 A3064 RMK CI1 CI TR SLP382 =
2018-02-22 05:00 METAR CYMX 220500Z 31008KT 25SM SKC M03/M13 A3061 RMK SLP373 =
2018-02-22 04:00 METAR CYMX 220400Z 31006KT 25SM FEW220 M02/M11 A3058 RMK CI1 CI TR SLP362 =

Support USWX by starting your Amazon purchase here.